createdAt,value
2023-01-28T00:02:26.135Z,99.90
2023-01-28T00:04:53.635Z,99.90
2023-01-28T00:07:21.309Z,99.90
2023-01-28T00:09:48.352Z,99.90
2023-01-28T00:12:15.461Z,99.90
2023-01-28T00:14:42.580Z,99.90
2023-01-28T00:17:09.644Z,99.90
2023-01-28T00:19:36.935Z,99.90
2023-01-28T00:22:04.564Z,99.90
2023-01-28T00:24:31.758Z,99.90
2023-01-28T00:26:58.877Z,99.90
2023-01-28T00:29:25.979Z,99.90
2023-01-28T00:31:53.085Z,99.90
2023-01-28T00:34:21.217Z,99.90
2023-01-28T00:36:57.918Z,99.90
2023-01-28T00:39:26.423Z,99.90
2023-01-28T00:41:54.576Z,99.90
2023-01-28T00:44:24.972Z,99.90
2023-01-28T00:46:52.041Z,99.90
2023-01-28T00:49:22.342Z,99.90
2023-01-28T00:51:49.519Z,99.90
2023-01-28T00:54:16.735Z,99.90
2023-01-28T00:56:43.805Z,99.90
2023-01-28T00:59:10.947Z,99.90
2023-01-28T01:01:38.124Z,99.90
2023-01-28T01:04:05.885Z,99.90
2023-01-28T01:06:40.733Z,99.90
2023-01-28T01:09:11.221Z,99.90
2023-01-28T01:11:39.165Z,99.90
2023-01-28T01:14:07.251Z,99.90
2023-01-28T01:16:36.223Z,99.90
2023-01-28T01:19:04.181Z,99.90
2023-01-28T01:21:31.833Z,99.90
2023-01-28T01:23:58.892Z,99.90
2023-01-28T01:26:27.818Z,99.90
2023-01-28T01:28:57.753Z,99.90
2023-01-28T01:31:25.019Z,99.90
2023-01-28T01:33:53.361Z,99.90
2023-01-28T01:36:22.180Z,99.90
2023-01-28T01:38:54.077Z,99.90
2023-01-28T01:41:28.974Z,99.90
2023-01-28T01:44:01.798Z,99.90
2023-01-28T01:46:50.959Z,99.90
2023-01-28T01:49:27.142Z,99.90
2023-01-28T01:52:16.099Z,99.90
2023-01-28T01:54:47.179Z,99.90
2023-01-28T01:57:22.653Z,99.90
2023-01-28T01:59:50.121Z,99.90
2023-01-28T02:02:17.780Z,99.90
2023-01-28T02:04:45.544Z,99.90
2023-01-28T02:07:19.058Z,99.90
2023-01-28T02:09:46.169Z,99.90
2023-01-28T02:12:18.715Z,99.90
2023-01-28T02:15:11.130Z,99.90
2023-01-28T02:17:38.763Z,99.90
2023-01-28T02:20:12.212Z,99.90
2023-01-28T02:23:35.797Z,99.90
2023-01-28T02:26:47.261Z,99.90
2023-01-28T02:30:09.729Z,99.90
2023-01-28T02:33:00.556Z,99.90
2023-01-28T02:35:47.223Z,99.90
2023-01-28T02:38:29.217Z,99.90
2023-01-28T02:41:07.047Z,99.90
2023-01-28T02:43:40.279Z,99.90
2023-01-28T02:46:55.669Z,99.90
2023-01-28T02:49:40.258Z,99.90
2023-01-28T02:52:48.702Z,99.90
2023-01-28T02:55:39.512Z,99.90
2023-01-28T02:59:03.371Z,99.90
2023-01-28T03:01:43.632Z,99.90
2023-01-28T03:04:27.108Z,99.90
2023-01-28T03:06:59.858Z,99.90
2023-01-28T03:09:27.386Z,99.90
2023-01-28T03:12:26.585Z,99.90
2023-01-28T03:15:44.966Z,99.90
2023-01-28T03:18:55.572Z,99.90
2023-01-28T03:21:51.058Z,99.90
2023-01-28T03:24:54.249Z,99.90
2023-01-28T03:27:52.947Z,99.90
2023-01-28T03:30:44.510Z,99.90
2023-01-28T03:33:35.455Z,99.90
2023-01-28T03:36:22.020Z,99.90
2023-01-28T03:38:49.302Z,99.90
2023-01-28T03:41:23.556Z,99.90
2023-01-28T03:43:54.875Z,99.90
2023-01-28T03:46:22.432Z,99.90
2023-01-28T03:48:49.579Z,99.90
2023-01-28T03:51:18.022Z,99.90
2023-01-28T03:53:45.322Z,99.90
2023-01-28T03:56:18.697Z,99.90
2023-01-28T03:58:53.107Z,99.90
2023-01-28T04:01:21.263Z,99.90
2023-01-28T04:03:48.656Z,99.90
2023-01-28T04:06:20.235Z,99.90
2023-01-28T04:08:59.730Z,99.90
2023-01-28T04:11:40.226Z,99.90
2023-01-28T04:14:08.794Z,99.90
2023-01-28T04:16:45.989Z,99.90
2023-01-28T04:19:13.878Z,99.90
2023-01-28T04:21:42.209Z,99.90
2023-01-28T04:24:10.068Z,99.90
2023-01-28T04:26:37.309Z,99.90
2023-01-28T04:29:05.325Z,99.90
2023-01-28T04:31:35.272Z,99.90
2023-01-28T04:34:20.047Z,99.90
2023-01-28T04:37:10.442Z,99.90
2023-01-28T04:39:56.422Z,99.90
2023-01-28T04:42:43.888Z,99.90
2023-01-28T04:45:26.405Z,99.90
2023-01-28T04:48:12.374Z,99.90
2023-01-28T04:51:03.939Z,99.90
2023-01-28T04:53:56.636Z,99.90
2023-01-28T04:56:26.867Z,99.90
2023-01-28T04:58:54.147Z,99.90
2023-01-28T05:01:21.392Z,99.90
2023-01-28T05:03:48.661Z,99.90
2023-01-28T05:06:24.038Z,99.90
2023-01-28T05:08:54.586Z,99.90
2023-01-28T05:11:21.736Z,99.90
2023-01-28T05:13:54.730Z,99.90
2023-01-28T05:16:21.999Z,99.90
2023-01-28T05:18:51.502Z,99.90
2023-01-28T05:21:20.242Z,99.90
2023-01-28T05:23:53.188Z,99.90
2023-01-28T05:26:20.703Z,99.90
2023-01-28T05:28:47.869Z,99.90
2023-01-28T05:31:15.043Z,99.90
2023-01-28T05:33:42.132Z,99.90
2023-01-28T05:36:11.743Z,99.90
2023-01-28T05:38:39.542Z,99.90
2023-01-28T05:41:06.814Z,99.90
2023-01-28T05:43:34.130Z,99.90
2023-01-28T05:46:26.655Z,99.90
2023-01-28T05:49:17.072Z,99.90
2023-01-28T05:52:10.015Z,99.90
2023-01-28T05:54:37.700Z,99.90
2023-01-28T05:57:05.000Z,99.90
2023-01-28T05:59:33.879Z,99.90
2023-01-28T06:02:01.689Z,99.90
2023-01-28T06:04:28.945Z,99.90
2023-01-28T06:06:56.103Z,99.90
2023-01-28T06:09:23.331Z,99.90
2023-01-28T06:11:51.834Z,99.90
2023-01-28T06:14:19.205Z,99.90
2023-01-28T06:17:06.390Z,99.90
2023-01-28T06:19:38.561Z,99.90
2023-01-28T06:22:06.995Z,99.90
2023-01-28T06:24:34.351Z,99.90
2023-01-28T06:27:01.489Z,99.90
2023-01-28T06:29:28.682Z,99.90
2023-01-28T06:31:55.873Z,99.90
2023-01-28T06:34:23.013Z,99.90
2023-01-28T06:36:51.102Z,99.90
2023-01-28T06:39:18.152Z,99.90
2023-01-28T06:41:45.216Z,99.90
2023-01-28T06:44:12.454Z,99.90
2023-01-28T06:46:40.274Z,99.90
2023-01-28T06:49:07.417Z,99.90
2023-01-28T06:51:34.718Z,99.90
2023-01-28T06:54:01.838Z,99.90
2023-01-28T06:56:28.922Z,99.90
2023-01-28T06:58:55.976Z,99.90
2023-01-28T07:01:23.155Z,99.90
2023-01-28T07:03:50.242Z,99.90
2023-01-28T07:06:17.379Z,99.90
2023-01-28T07:08:44.558Z,99.90
2023-01-28T07:11:11.712Z,99.90
2023-01-28T07:13:38.869Z,99.90
2023-01-28T07:16:06.693Z,99.90
2023-01-28T07:18:33.986Z,99.90
2023-01-28T07:21:01.235Z,99.90
2023-01-28T07:23:29.188Z,99.90
2023-01-28T07:26:00.629Z,99.90
2023-01-28T07:28:27.809Z,99.90
2023-01-28T07:30:54.902Z,99.90
2023-01-28T07:33:22.204Z,99.90
2023-01-28T07:35:49.411Z,99.90
2023-01-28T07:38:16.675Z,99.90
2023-01-28T07:40:43.737Z,99.90
2023-01-28T07:43:11.096Z,99.90
2023-01-28T07:45:40.419Z,99.90
2023-01-28T07:48:10.530Z,99.90
2023-01-28T07:50:38.268Z,99.90
2023-01-28T07:53:07.892Z,99.90
2023-01-28T07:55:39.376Z,99.90
2023-01-28T07:58:08.255Z,99.90
2023-01-28T08:00:37.706Z,99.90
2023-01-28T08:03:14.745Z,99.90
2023-01-28T08:05:46.016Z,99.90
2023-01-28T08:08:14.041Z,99.90
2023-01-28T08:10:41.675Z,99.90
2023-01-28T08:13:10.474Z,99.90
2023-01-28T08:15:37.586Z,99.90
2023-01-28T08:18:06.781Z,99.90
2023-01-28T08:20:34.442Z,99.90
2023-01-28T08:23:23.165Z,99.90
2023-01-28T08:25:51.240Z,99.90
2023-01-28T08:28:18.479Z,99.90
2023-01-28T08:30:46.342Z,99.90
2023-01-28T08:33:15.901Z,99.90
2023-01-28T08:35:43.154Z,99.90
2023-01-28T08:38:12.153Z,99.90
2023-01-28T08:40:39.431Z,99.90
2023-01-28T08:43:07.402Z,99.90
2023-01-28T08:45:34.587Z,99.90
2023-01-28T08:48:04.018Z,99.90
2023-01-28T08:50:36.621Z,99.90
2023-01-28T08:53:06.299Z,99.90
2023-01-28T08:55:34.513Z,99.90
2023-01-28T08:58:06.973Z,99.90
2023-01-28T09:00:35.130Z,99.90
2023-01-28T09:03:04.715Z,99.90
2023-01-28T09:05:34.202Z,99.90
2023-01-28T09:08:03.564Z,99.90
2023-01-28T09:10:30.698Z,99.90
2023-01-28T09:12:57.997Z,99.90
2023-01-28T09:15:25.794Z,99.90
2023-01-28T09:17:58.396Z,99.90
2023-01-28T09:20:26.022Z,99.90
2023-01-28T09:22:53.105Z,99.90
2023-01-28T09:25:20.504Z,99.90
2023-01-28T09:27:47.642Z,99.90
2023-01-28T09:30:15.448Z,99.90
2023-01-28T09:32:42.705Z,99.90
2023-01-28T09:35:10.349Z,99.90
2023-01-28T09:37:37.493Z,99.90
2023-01-28T09:40:05.992Z,99.90
2023-01-28T09:43:25.868Z,99.90
2023-01-28T09:45:58.145Z,99.90
2023-01-28T09:48:32.971Z,99.90
2023-01-28T09:51:01.696Z,99.90
2023-01-28T09:53:34.888Z,99.90
2023-01-28T09:56:25.651Z,99.90
2023-01-28T09:58:52.932Z,99.90
2023-01-28T10:01:47.202Z,99.90
2023-01-28T10:04:48.691Z,99.90
2023-01-28T10:07:51.237Z,99.50
2023-01-28T10:10:29.036Z,99.30
2023-01-28T10:13:22.066Z,99.10
2023-01-28T10:16:12.689Z,99.30
2023-01-28T10:18:49.117Z,98.80
2023-01-28T10:22:11.694Z,98.20
2023-01-28T10:24:58.381Z,98.20
2023-01-28T10:27:30.042Z,97.90
2023-01-28T10:30:00.038Z,97.20
2023-01-28T10:32:31.476Z,97.30
2023-01-28T10:34:59.862Z,96.00
2023-01-28T10:37:27.552Z,96.20
2023-01-28T10:39:58.433Z,95.60
2023-01-28T10:42:38.330Z,96.10
2023-01-28T10:45:19.763Z,94.90
2023-01-28T10:48:09.787Z,94.40
2023-01-28T10:50:37.059Z,93.90
2023-01-28T10:53:06.154Z,92.70
2023-01-28T10:55:56.121Z,92.30
2023-01-28T10:58:28.981Z,93.00
2023-01-28T11:01:00.626Z,94.00
2023-01-28T11:03:29.328Z,92.50
2023-01-28T11:05:58.676Z,92.80
2023-01-28T11:08:27.644Z,90.40
2023-01-28T11:10:56.363Z,88.50
2023-01-28T11:13:26.514Z,88.10
2023-01-28T11:16:02.630Z,89.20
2023-01-28T11:18:39.772Z,89.00
2023-01-28T11:21:15.464Z,88.00
2023-01-28T11:23:53.495Z,87.00
2023-01-28T11:26:26.647Z,89.30
2023-01-28T11:28:54.273Z,90.60
2023-01-28T11:31:26.629Z,89.90
2023-01-28T11:34:05.285Z,89.40
2023-01-28T11:36:34.825Z,88.40
2023-01-28T11:39:26.078Z,88.90
2023-01-28T11:41:54.116Z,86.50
2023-01-28T11:44:24.323Z,87.60
2023-01-28T11:47:27.728Z,89.60
2023-01-28T11:50:33.958Z,89.10
2023-01-28T11:53:22.054Z,87.40
2023-01-28T11:56:45.133Z,86.70
2023-01-28T11:59:54.551Z,87.00
2023-01-28T12:03:09.518Z,90.40
2023-01-28T12:05:55.367Z,90.80
2023-01-28T12:08:41.366Z,91.50
2023-01-28T12:12:13.949Z,90.80
2023-01-28T12:15:39.516Z,91.90
2023-01-28T12:18:27.914Z,93.20
2023-01-28T12:21:08.474Z,91.90
2023-01-28T12:24:30.889Z,91.40
2023-01-28T12:27:24.687Z,92.90
2023-01-28T12:30:44.788Z,93.10
2023-01-28T12:33:52.144Z,92.50
2023-01-28T12:36:58.222Z,93.40
2023-01-28T12:42:46.088Z,93.70
2023-01-28T12:45:25.442Z,94.50
2023-01-28T12:50:52.029Z,94.20
2023-01-28T12:53:52.340Z,95.10
2023-01-28T12:56:34.135Z,94.50
2023-01-28T12:59:25.532Z,94.80
2023-01-28T13:02:30.203Z,95.80
2023-01-28T13:05:14.276Z,94.80
2023-01-28T13:08:21.241Z,96.90
2023-01-28T13:10:49.152Z,96.00
2023-01-28T13:13:20.513Z,95.90
2023-01-28T13:15:48.044Z,95.80
2023-01-28T13:18:46.667Z,96.00
2023-01-28T13:21:49.586Z,96.00
2023-01-28T13:24:24.177Z,95.80
2023-01-28T13:26:55.277Z,96.00
2023-01-28T13:29:33.709Z,95.40
2023-01-28T13:32:03.406Z,95.10
2023-01-28T13:34:40.705Z,95.30
2023-01-28T13:37:44.175Z,95.40
2023-01-28T13:40:29.848Z,95.30
2023-01-28T13:43:06.300Z,95.80
2023-01-28T13:45:34.321Z,95.30
2023-01-28T13:48:31.498Z,94.80
2023-01-28T13:51:00.772Z,94.70
2023-01-28T13:53:59.796Z,94.90
2023-01-28T13:56:31.283Z,94.20
2023-01-28T13:59:34.107Z,94.10
2023-01-28T14:02:38.333Z,94.00
2023-01-28T14:05:49.501Z,94.30
2023-01-28T14:08:55.528Z,93.90
2023-01-28T14:12:04.672Z,94.40
2023-01-28T14:15:14.053Z,94.10
2023-01-28T14:17:56.670Z,94.00
2023-01-28T14:20:37.975Z,93.80
2023-01-28T14:23:14.376Z,93.20
2023-01-28T14:26:16.493Z,92.60
2023-01-28T14:29:16.225Z,92.90
2023-01-28T14:31:43.792Z,92.00
2023-01-28T14:34:29.733Z,92.90
2023-01-28T14:37:00.455Z,92.80
2023-01-28T14:39:29.682Z,93.10
2023-01-28T14:42:00.158Z,92.00
2023-01-28T14:44:39.701Z,92.70
2023-01-28T14:48:08.047Z,93.00
2023-01-28T14:51:25.938Z,93.40
2023-01-28T14:54:06.399Z,92.60
2023-01-28T14:57:19.080Z,92.10
2023-01-28T14:59:58.274Z,93.00
2023-01-28T15:02:31.377Z,93.40
2023-01-28T15:05:15.250Z,93.40
2023-01-28T15:07:47.100Z,93.60
2023-01-28T15:10:36.101Z,93.80
2023-01-28T15:13:11.387Z,92.50
2023-01-28T15:15:40.644Z,93.30
2023-01-28T15:18:23.835Z,94.10
2023-01-28T15:20:54.158Z,94.20
2023-01-28T15:23:49.717Z,94.60
2023-01-28T15:26:22.957Z,93.90
2023-01-28T15:28:51.257Z,93.60
2023-01-28T15:31:35.746Z,93.90
2023-01-28T15:34:29.991Z,93.90
2023-01-28T15:37:02.711Z,93.60
2023-01-28T15:39:30.656Z,93.70
2023-01-28T15:42:02.085Z,93.20
2023-01-28T15:44:35.082Z,93.70
2023-01-28T15:47:05.517Z,93.40
2023-01-28T15:49:38.037Z,93.80
2023-01-28T15:52:05.329Z,93.90
2023-01-28T15:54:32.470Z,93.10
2023-01-28T15:57:22.662Z,93.40
2023-01-28T15:59:52.498Z,93.10
2023-01-28T16:02:23.817Z,93.80
2023-01-28T16:05:02.380Z,94.90
2023-01-28T16:07:32.737Z,93.80
2023-01-28T16:10:02.433Z,94.10
2023-01-28T16:12:29.725Z,94.10
2023-01-28T16:14:59.592Z,93.50
2023-01-28T16:17:41.436Z,93.60
2023-01-28T16:20:19.505Z,93.80
2023-01-28T16:22:47.106Z,95.30
2023-01-28T16:25:32.448Z,93.70
2023-01-28T16:28:02.117Z,94.60
2023-01-28T16:30:29.968Z,94.10
2023-01-28T16:32:57.583Z,93.60
2023-01-28T16:35:38.258Z,94.00
2023-01-28T16:38:18.928Z,94.40
2023-01-28T16:40:47.716Z,94.40
2023-01-28T16:43:16.428Z,95.00
2023-01-28T16:45:44.155Z,94.30
2023-01-28T16:48:11.394Z,94.50
2023-01-28T16:50:42.942Z,94.10
2023-01-28T16:53:29.797Z,94.10
2023-01-28T16:55:56.951Z,94.30
2023-01-28T16:58:26.471Z,94.80
2023-01-28T17:00:54.266Z,94.50
2023-01-28T17:03:22.013Z,94.90
2023-01-28T17:05:49.367Z,94.40
2023-01-28T17:08:17.138Z,94.50
2023-01-28T17:10:44.887Z,95.00
2023-01-28T17:13:12.160Z,95.10
2023-01-28T17:15:39.394Z,94.80
2023-01-28T17:18:06.496Z,94.40
2023-01-28T17:20:37.484Z,94.10
2023-01-28T17:23:07.422Z,93.70
2023-01-28T17:25:39.062Z,93.40
2023-01-28T17:28:06.944Z,93.50
2023-01-28T17:30:34.777Z,94.10
2023-01-28T17:33:01.978Z,93.60
2023-01-28T17:35:31.024Z,92.30
2023-01-28T17:37:58.238Z,92.60
2023-01-28T17:40:25.326Z,92.00
2023-01-28T17:42:52.480Z,91.50
2023-01-28T17:45:19.560Z,91.80
2023-01-28T17:47:46.693Z,91.70
2023-01-28T17:50:13.998Z,91.70
2023-01-28T17:52:41.329Z,91.80
2023-01-28T17:55:10.517Z,91.70
2023-01-28T17:57:37.742Z,91.50
2023-01-28T18:00:06.362Z,91.50
2023-01-28T18:02:39.007Z,91.60
2023-01-28T18:05:06.745Z,91.30
2023-01-28T18:07:33.993Z,91.20
2023-01-28T18:10:01.386Z,92.10
2023-01-28T18:12:28.523Z,91.80
2023-01-28T18:14:55.836Z,91.50
2023-01-28T18:17:27.093Z,91.70
2023-01-28T18:19:54.473Z,92.30
2023-01-28T18:22:21.684Z,91.20
2023-01-28T18:24:48.979Z,90.10
2023-01-28T18:27:16.161Z,90.60
2023-01-28T18:29:43.341Z,90.80
2023-01-28T18:32:10.514Z,90.90
2023-01-28T18:34:37.708Z,91.10
2023-01-28T18:37:06.735Z,90.90
2023-01-28T18:39:34.325Z,90.90
2023-01-28T18:42:01.675Z,91.30
2023-01-28T18:44:30.294Z,91.40
2023-01-28T18:46:57.696Z,91.40
2023-01-28T18:49:25.114Z,91.70
2023-01-28T18:51:52.199Z,90.90
2023-01-28T18:54:20.518Z,91.40
2023-01-28T18:56:48.836Z,91.50
2023-01-28T18:59:16.178Z,91.40
2023-01-28T19:01:44.152Z,91.80
2023-01-28T19:04:11.458Z,91.50
2023-01-28T19:06:38.737Z,90.80
2023-01-28T19:09:07.216Z,91.50
2023-01-28T19:11:35.331Z,91.80
2023-01-28T19:14:02.714Z,91.60
2023-01-28T19:16:30.306Z,92.10
2023-01-28T19:18:59.563Z,92.30
2023-01-28T19:21:27.958Z,92.70
2023-01-28T19:24:00.268Z,92.60
2023-01-28T19:26:29.585Z,92.80
2023-01-28T19:28:57.271Z,93.50
2023-01-28T19:31:25.952Z,93.40
2023-01-28T19:33:58.464Z,94.00
2023-01-28T19:36:27.940Z,95.20
2023-01-28T19:39:03.139Z,95.80
2023-01-28T19:41:30.531Z,95.40
2023-01-28T19:43:57.822Z,95.40
2023-01-28T19:46:25.581Z,95.80
2023-01-28T19:48:52.728Z,95.80
2023-01-28T19:51:20.660Z,96.00
2023-01-28T19:53:53.729Z,96.10
2023-01-28T19:56:22.700Z,96.80
2023-01-28T19:58:50.171Z,97.10
2023-01-28T20:01:20.032Z,97.50
2023-01-28T20:03:50.757Z,96.60
2023-01-28T20:06:18.180Z,97.40
2023-01-28T20:08:45.731Z,96.70
2023-01-28T20:11:16.774Z,97.90
2023-01-28T20:13:45.455Z,98.50
2023-01-28T20:16:19.328Z,98.30
2023-01-28T20:18:55.053Z,97.90
2023-01-28T20:21:22.999Z,97.90
2023-01-28T20:23:53.061Z,99.00
2023-01-28T20:26:22.909Z,99.00
2023-01-28T20:28:51.215Z,99.10
2023-01-28T20:31:19.724Z,98.70
2023-01-28T20:33:46.955Z,99.00
2023-01-28T20:36:15.064Z,98.60
2023-01-28T20:38:45.004Z,98.30
2023-01-28T20:41:21.158Z,98.20
2023-01-28T20:43:49.826Z,98.90
2023-01-28T20:46:22.483Z,99.70
2023-01-28T20:48:50.707Z,99.70
2023-01-28T20:51:20.148Z,99.90
2023-01-28T20:53:48.226Z,99.90
2023-01-28T20:56:19.382Z,99.90
2023-01-28T20:58:48.280Z,99.90
2023-01-28T21:01:21.144Z,99.90
2023-01-28T21:03:49.072Z,99.90
2023-01-28T21:06:16.861Z,99.90
2023-01-28T21:08:44.265Z,99.90
2023-01-28T21:11:12.281Z,99.90
2023-01-28T21:13:39.851Z,99.90
2023-01-28T21:16:07.865Z,99.90
2023-01-28T21:18:35.109Z,99.90
2023-01-28T21:21:08.031Z,99.90
2023-01-28T21:23:35.147Z,99.90
2023-01-28T21:26:04.181Z,99.90
2023-01-28T21:28:32.190Z,99.90
2023-01-28T21:31:17.038Z,99.90
2023-01-28T21:33:48.105Z,99.90
2023-01-28T21:36:16.296Z,99.90
2023-01-28T21:38:43.409Z,99.90
2023-01-28T21:41:10.993Z,99.90
2023-01-28T21:43:38.126Z,99.90
2023-01-28T21:46:05.682Z,99.90
2023-01-28T21:48:32.864Z,99.90
2023-01-28T21:51:27.452Z,99.90
2023-01-28T21:53:54.590Z,99.90
2023-01-28T21:56:21.740Z,99.90
2023-01-28T21:59:07.443Z,99.90
2023-01-28T22:01:34.716Z,99.90
2023-01-28T22:04:01.917Z,99.90
2023-01-28T22:06:29.107Z,99.90
2023-01-28T22:08:56.141Z,99.90
2023-01-28T22:11:23.436Z,99.90
2023-01-28T22:13:50.607Z,99.90
2023-01-28T22:16:18.962Z,99.90
2023-01-28T22:18:46.844Z,99.90
2023-01-28T22:21:14.025Z,99.90
2023-01-28T22:23:41.105Z,99.90
2023-01-28T22:26:08.321Z,99.90
2023-01-28T22:28:37.070Z,99.90
2023-01-28T22:31:09.459Z,99.90
2023-01-28T22:33:36.935Z,99.90
2023-01-28T22:36:17.650Z,99.90
2023-01-28T22:38:45.649Z,99.90
2023-01-28T22:41:15.614Z,99.90
2023-01-28T22:43:42.790Z,99.90
2023-01-28T22:46:10.262Z,99.90
2023-01-28T22:48:38.854Z,99.90
2023-01-28T22:51:09.075Z,99.90
2023-01-28T22:53:36.259Z,99.90
2023-01-28T22:56:03.483Z,99.90
2023-01-28T22:58:31.772Z,99.90
2023-01-28T23:00:59.372Z,99.90
2023-01-28T23:03:26.804Z,99.90
2023-01-28T23:05:59.252Z,99.90
2023-01-28T23:08:27.283Z,99.90
2023-01-28T23:10:57.512Z,99.90
2023-01-28T23:13:25.991Z,99.90
2023-01-28T23:16:12.039Z,99.90
2023-01-28T23:18:47.958Z,99.90
2023-01-28T23:21:36.379Z,99.90
2023-01-28T23:24:21.611Z,99.90
2023-01-28T23:26:57.214Z,99.90
2023-01-28T23:29:27.088Z,99.90
2023-01-28T23:32:03.710Z,99.90
2023-01-28T23:34:37.931Z,99.90
2023-01-28T23:37:06.927Z,99.90
2023-01-28T23:39:34.433Z,99.90
2023-01-28T23:42:16.611Z,99.90
2023-01-28T23:44:44.419Z,99.90
2023-01-28T23:47:12.117Z,99.90
2023-01-28T23:49:39.808Z,99.90
2023-01-28T23:52:07.811Z,99.90
2023-01-28T23:54:35.052Z,99.90
2023-01-28T23:57:02.569Z,99.90
2023-01-28T23:59:29.912Z,99.90
